createdAt,value
2018-03-31T00:00:29.234Z,998.40
2018-03-31T00:01:29.131Z,998.40
2018-03-31T00:02:29.027Z,998.33
2018-03-31T00:03:28.929Z,998.33
2018-03-31T00:04:28.821Z,998.33
2018-03-31T00:05:28.706Z,998.38
2018-03-31T00:06:28.603Z,998.24
2018-03-31T00:07:28.498Z,998.15
2018-03-31T00:08:28.394Z,998.13
2018-03-31T00:09:28.291Z,998.04
2018-03-31T00:10:28.187Z,998.04
2018-03-31T00:11:28.084Z,998.07
2018-03-31T00:12:27.969Z,998.02
2018-03-31T00:13:27.867Z,998.10
2018-03-31T00:14:27.762Z,998.03
2018-03-31T00:15:27.660Z,997.90
2018-03-31T00:16:27.556Z,997.96
2018-03-31T00:17:27.453Z,997.85
2018-03-31T00:18:27.338Z,997.92
2018-03-31T00:19:27.233Z,997.79
2018-03-31T00:20:27.130Z,997.84
2018-03-31T00:21:27.026Z,997.76
2018-03-31T00:22:27.173Z,997.73
2018-03-31T00:23:26.819Z,997.82
2018-03-31T00:24:26.717Z,997.78
2018-03-31T00:25:26.602Z,997.82
2018-03-31T00:26:26.497Z,997.80
2018-03-31T00:27:26.395Z,997.81
2018-03-31T00:28:26.294Z,997.78
2018-03-31T00:29:26.205Z,997.85
2018-03-31T00:30:26.089Z,997.89
2018-03-31T00:31:25.969Z,997.78
2018-03-31T00:32:25.864Z,997.84
2018-03-31T00:33:25.762Z,997.81
2018-03-31T00:34:25.658Z,997.81
2018-03-31T00:35:25.555Z,997.83
2018-03-31T00:36:25.451Z,997.84
2018-03-31T00:37:25.362Z,997.77
2018-03-31T00:38:25.233Z,997.80
2018-03-31T00:39:25.130Z,997.79
2018-03-31T00:40:25.026Z,997.83
2018-03-31T00:41:24.923Z,997.75
2018-03-31T00:42:24.821Z,997.71
2018-03-31T00:43:24.716Z,997.70
2018-03-31T00:44:24.600Z,997.72
2018-03-31T00:45:24.496Z,997.70
2018-03-31T00:46:24.393Z,997.70
2018-03-31T00:47:24.291Z,997.73
2018-03-31T00:48:24.189Z,997.69
2018-03-31T00:49:24.083Z,997.60
2018-03-31T00:50:23.968Z,997.57
2018-03-31T00:51:23.865Z,997.62
2018-03-31T00:52:23.762Z,997.62
2018-03-31T00:53:23.658Z,997.50
2018-03-31T00:54:23.554Z,997.57
2018-03-31T00:55:23.451Z,997.54
2018-03-31T00:56:23.336Z,997.51
2018-03-31T00:57:23.232Z,997.49
2018-03-31T00:58:23.133Z,997.50
2018-03-31T00:59:23.025Z,997.59
2018-03-31T01:00:22.921Z,997.54
2018-03-31T01:01:22.820Z,997.61
2018-03-31T01:02:22.705Z,997.51
2018-03-31T01:03:22.602Z,997.55
2018-03-31T01:04:22.496Z,997.63
2018-03-31T01:05:22.394Z,997.58
2018-03-31T01:06:22.290Z,997.62
2018-03-31T01:07:22.187Z,997.54
2018-03-31T01:08:22.083Z,997.53
2018-03-31T01:09:21.967Z,997.54
2018-03-31T01:10:21.863Z,997.47
2018-03-31T01:11:21.761Z,997.49
2018-03-31T01:12:21.657Z,997.41
2018-03-31T01:13:21.555Z,997.43
2018-03-31T01:14:21.438Z,997.45
2018-03-31T01:15:21.335Z,997.44
2018-03-31T01:16:21.232Z,997.43
2018-03-31T01:17:21.129Z,997.39
2018-03-31T01:18:21.024Z,997.42
2018-03-31T01:19:20.910Z,997.41
2018-03-31T01:20:20.806Z,997.47
2018-03-31T01:21:20.702Z,997.45
2018-03-31T01:22:20.602Z,997.43
2018-03-31T01:23:20.496Z,997.45
2018-03-31T01:24:20.393Z,997.45
2018-03-31T01:25:20.277Z,997.46
2018-03-31T01:26:20.175Z,997.42
2018-03-31T01:27:20.071Z,997.44
2018-03-31T01:28:19.971Z,997.49
2018-03-31T01:29:19.864Z,997.41
2018-03-31T01:30:19.750Z,997.37
2018-03-31T01:31:19.644Z,997.33
2018-03-31T01:32:19.540Z,997.42
2018-03-31T01:33:19.437Z,997.26
2018-03-31T01:34:19.333Z,997.26
2018-03-31T01:35:19.237Z,997.22
2018-03-31T01:36:19.115Z,997.27
2018-03-31T01:37:19.013Z,997.32
2018-03-31T01:38:18.910Z,997.26
2018-03-31T01:39:18.804Z,997.30
2018-03-31T01:40:18.703Z,997.29
2018-03-31T01:41:18.598Z,997.32
2018-03-31T01:42:18.484Z,997.34
2018-03-31T01:43:18.384Z,997.31
2018-03-31T01:44:18.276Z,997.27
2018-03-31T01:45:18.173Z,997.38
2018-03-31T01:46:18.070Z,997.30
2018-03-31T01:47:17.955Z,997.31
2018-03-31T01:48:17.852Z,997.42
2018-03-31T01:49:17.749Z,997.32
2018-03-31T01:50:17.644Z,997.34
2018-03-31T01:51:17.541Z,997.33
2018-03-31T01:52:17.426Z,997.34
2018-03-31T01:53:17.336Z,997.38
2018-03-31T01:54:17.231Z,997.33
2018-03-31T01:55:17.114Z,997.34
2018-03-31T01:56:17.011Z,997.32
2018-03-31T01:57:16.898Z,997.31
2018-03-31T01:58:16.792Z,997.24
2018-03-31T01:59:16.689Z,997.27
2018-03-31T02:00:16.588Z,997.22
2018-03-31T02:01:16.483Z,997.22
2018-03-31T02:02:16.367Z,997.20
2018-03-31T02:03:16.263Z,997.17
2018-03-31T02:04:16.160Z,997.13
2018-03-31T02:05:16.057Z,997.14
2018-03-31T02:06:15.953Z,997.16
2018-03-31T02:07:15.842Z,997.17
2018-03-31T02:08:15.737Z,997.13
2018-03-31T02:09:15.632Z,997.18
2018-03-31T02:10:15.529Z,997.10
2018-03-31T02:11:15.425Z,997.09
2018-03-31T02:12:15.322Z,997.12
2018-03-31T02:13:15.204Z,997.15
2018-03-31T02:14:15.102Z,997.15
2018-03-31T02:15:14.998Z,997.13
2018-03-31T02:16:14.894Z,997.07
2018-03-31T02:17:14.810Z,997.15
2018-03-31T02:18:14.676Z,997.00
2018-03-31T02:19:14.573Z,996.97
2018-03-31T02:20:14.470Z,996.95
2018-03-31T02:21:14.368Z,996.90
2018-03-31T02:22:14.263Z,996.86
2018-03-31T02:23:14.159Z,996.88
2018-03-31T02:24:14.044Z,996.84
2018-03-31T02:25:13.941Z,996.79
2018-03-31T02:26:13.826Z,996.90
2018-03-31T02:27:13.723Z,996.74
2018-03-31T02:28:13.618Z,996.71
2018-03-31T02:29:13.515Z,996.77
2018-03-31T02:30:13.416Z,996.77
2018-03-31T02:31:13.296Z,996.73
2018-03-31T02:32:13.194Z,996.74
2018-03-31T02:33:13.088Z,996.67
2018-03-31T02:34:12.990Z,996.72
2018-03-31T02:35:12.886Z,996.68
2018-03-31T02:36:12.769Z,996.69
2018-03-31T02:37:12.664Z,996.56
2018-03-31T02:38:12.561Z,996.61
2018-03-31T02:39:12.458Z,996.64
2018-03-31T02:40:12.357Z,996.60
2018-03-31T02:41:12.250Z,996.59
2018-03-31T02:42:12.134Z,996.72
2018-03-31T02:43:12.031Z,996.71
2018-03-31T02:44:11.927Z,996.70
2018-03-31T02:45:11.824Z,996.71
2018-03-31T02:46:11.709Z,996.69
2018-03-31T02:47:11.606Z,996.77
2018-03-31T02:48:11.504Z,996.66
2018-03-31T02:49:11.400Z,996.68
2018-03-31T02:50:11.285Z,996.61
2018-03-31T02:51:11.185Z,996.64
2018-03-31T02:52:11.076Z,996.58
2018-03-31T02:53:10.973Z,996.48
2018-03-31T02:54:10.870Z,996.55
2018-03-31T02:55:10.754Z,996.48
2018-03-31T02:56:10.654Z,996.43
2018-03-31T02:57:10.548Z,996.45
2018-03-31T02:58:10.444Z,996.46
2018-03-31T02:59:10.346Z,996.41
2018-03-31T03:00:10.224Z,996.39
2018-03-31T03:01:10.124Z,996.33
2018-03-31T03:02:10.018Z,996.27
2018-03-31T03:03:09.916Z,996.29
2018-03-31T03:04:09.799Z,996.44
2018-03-31T03:05:09.699Z,996.34
2018-03-31T03:06:09.596Z,996.36
2018-03-31T03:07:09.493Z,996.36
2018-03-31T03:08:09.385Z,996.37
2018-03-31T03:09:09.269Z,996.40
2018-03-31T03:10:09.166Z,996.38
2018-03-31T03:11:09.063Z,996.39
2018-03-31T03:12:08.959Z,996.32
2018-03-31T03:13:08.844Z,996.22
2018-03-31T03:14:08.741Z,996.23
2018-03-31T03:15:08.638Z,996.20
2018-03-31T03:16:08.534Z,996.22
2018-03-31T03:17:08.420Z,996.14
2018-03-31T03:18:08.316Z,996.17
2018-03-31T03:19:08.211Z,996.15
2018-03-31T03:20:08.108Z,996.18
2018-03-31T03:21:08.005Z,996.03
2018-03-31T03:22:07.889Z,996.06
2018-03-31T03:23:07.789Z,996.05
2018-03-31T03:24:07.684Z,996.04
2018-03-31T03:25:07.580Z,995.99
2018-03-31T03:26:07.464Z,995.99
2018-03-31T03:27:07.359Z,995.98
2018-03-31T03:28:07.256Z,995.94
2018-03-31T03:29:07.152Z,995.95
2018-03-31T03:30:07.040Z,995.89
2018-03-31T03:31:06.938Z,995.91
2018-03-31T03:32:06.832Z,995.93
2018-03-31T03:33:06.728Z,995.96
2018-03-31T03:34:06.625Z,995.88
2018-03-31T03:35:06.508Z,995.93
2018-03-31T03:36:06.405Z,995.94
2018-03-31T03:37:06.306Z,996.02
2018-03-31T03:38:06.198Z,995.96
2018-03-31T03:39:06.094Z,995.98
2018-03-31T03:40:05.980Z,996.05
2018-03-31T03:41:05.878Z,996.08
2018-03-31T03:42:06.074Z,996.08
2018-03-31T03:43:05.658Z,996.17
2018-03-31T03:44:05.553Z,996.07
2018-03-31T03:45:05.450Z,995.96
2018-03-31T03:46:05.347Z,995.97
2018-03-31T03:47:05.243Z,995.89
2018-03-31T03:48:05.128Z,995.97
2018-03-31T03:49:05.025Z,995.94
2018-03-31T03:50:04.922Z,995.98
2018-03-31T03:51:04.818Z,995.96
2018-03-31T03:52:04.703Z,996.03
2018-03-31T03:53:04.599Z,996.03
2018-03-31T03:54:04.495Z,996.09
2018-03-31T03:55:04.391Z,996.03
2018-03-31T03:56:04.289Z,996.09
2018-03-31T03:57:04.186Z,996.11
2018-03-31T03:58:04.074Z,996.06
2018-03-31T03:59:03.970Z,996.08
2018-03-31T04:00:03.863Z,996.07
2018-03-31T04:01:03.760Z,996.02
2018-03-31T04:02:03.646Z,996.03
2018-03-31T04:03:03.540Z,996.05
2018-03-31T04:04:03.437Z,995.99
2018-03-31T04:05:03.333Z,996.04
2018-03-31T04:06:03.218Z,995.99
2018-03-31T04:07:03.115Z,995.99
2018-03-31T04:08:03.014Z,995.97
2018-03-31T04:09:02.909Z,995.97
2018-03-31T04:10:02.805Z,995.93
2018-03-31T04:11:02.710Z,996.01
2018-03-31T04:12:02.587Z,995.92
2018-03-31T04:13:02.482Z,995.99
2018-03-31T04:14:02.379Z,995.91
2018-03-31T04:15:02.289Z,995.84
2018-03-31T04:16:02.160Z,995.88
2018-03-31T04:17:02.058Z,995.79
2018-03-31T04:18:01.954Z,995.87
2018-03-31T04:19:01.851Z,995.78
2018-03-31T04:20:01.736Z,995.75
2018-03-31T04:21:01.631Z,995.74
2018-03-31T04:22:01.528Z,995.74
2018-03-31T04:23:01.424Z,995.76
2018-03-31T04:24:01.320Z,995.92
2018-03-31T04:25:01.219Z,995.77
2018-03-31T04:26:01.102Z,995.78
2018-03-31T04:27:01.000Z,995.74
2018-03-31T04:28:00.896Z,995.81
2018-03-31T04:29:00.793Z,995.75
2018-03-31T04:30:00.677Z,995.78
2018-03-31T04:31:00.585Z,995.70
2018-03-31T04:32:00.769Z,995.67
2018-03-31T04:33:00.366Z,995.70
2018-03-31T04:34:00.262Z,995.72
2018-03-31T04:35:00.148Z,995.81
2018-03-31T04:36:00.045Z,995.70
2018-03-31T04:36:59.943Z,995.72
2018-03-31T04:37:59.840Z,995.71
2018-03-31T04:38:59.734Z,995.70
2018-03-31T04:39:59.619Z,995.71
2018-03-31T04:40:59.514Z,995.74
2018-03-31T04:41:59.411Z,995.71
2018-03-31T04:42:59.309Z,995.72
2018-03-31T04:43:59.218Z,995.66
2018-03-31T04:44:59.089Z,995.72
2018-03-31T04:45:58.987Z,995.67
2018-03-31T04:46:58.882Z,995.66
2018-03-31T04:47:58.779Z,995.64
2018-03-31T04:48:58.676Z,995.66
2018-03-31T04:49:58.561Z,995.67
2018-03-31T04:50:58.456Z,995.62
2018-03-31T04:51:58.353Z,995.61
2018-03-31T04:52:58.249Z,995.63
2018-03-31T04:53:58.146Z,995.64
2018-03-31T04:54:58.031Z,995.64
2018-03-31T04:55:57.928Z,995.64
2018-03-31T04:56:57.825Z,995.63
2018-03-31T04:57:57.722Z,995.64
2018-03-31T04:58:57.618Z,995.65
2018-03-31T04:59:57.502Z,995.65
2018-03-31T05:00:57.400Z,995.64
2018-03-31T05:01:57.294Z,995.71
2018-03-31T05:02:57.190Z,995.68
2018-03-31T05:03:57.087Z,995.67
2018-03-31T05:04:56.988Z,995.64
2018-03-31T05:05:56.869Z,995.68
2018-03-31T05:06:56.766Z,995.62
2018-03-31T05:07:56.662Z,995.51
2018-03-31T05:08:56.559Z,995.58
2018-03-31T05:09:56.446Z,995.55
2018-03-31T05:10:56.341Z,995.57
2018-03-31T05:11:56.239Z,995.66
2018-03-31T05:12:56.133Z,995.49
2018-03-31T05:13:56.030Z,995.56
2018-03-31T05:14:55.926Z,995.58
2018-03-31T05:15:55.811Z,995.57
2018-03-31T05:16:55.714Z,995.62
2018-03-31T05:17:55.635Z,995.66
2018-03-31T05:18:55.501Z,995.64
2018-03-31T05:19:55.399Z,995.65
2018-03-31T05:20:55.282Z,995.61
2018-03-31T05:21:55.181Z,995.71
2018-03-31T05:22:55.075Z,995.67
2018-03-31T05:23:54.971Z,995.69
2018-03-31T05:24:54.868Z,995.68
2018-03-31T05:25:54.752Z,995.70
2018-03-31T05:26:54.656Z,995.72
2018-03-31T05:27:54.551Z,995.73
2018-03-31T05:28:54.443Z,995.73
2018-03-31T05:29:54.340Z,995.70
2018-03-31T05:30:54.224Z,995.72
2018-03-31T05:31:54.129Z,995.68
2018-03-31T05:32:54.017Z,995.69
2018-03-31T05:33:53.913Z,995.65
2018-03-31T05:34:53.810Z,995.75
2018-03-31T05:35:53.707Z,995.67
2018-03-31T05:36:53.591Z,995.67
2018-03-31T05:37:53.488Z,995.66
2018-03-31T05:38:53.386Z,995.67
2018-03-31T05:39:53.286Z,995.68
2018-03-31T05:40:53.179Z,995.60
2018-03-31T05:41:53.061Z,995.62
2018-03-31T05:42:52.958Z,995.54
2018-03-31T05:43:52.856Z,995.59
2018-03-31T05:44:52.752Z,995.64
2018-03-31T05:45:52.653Z,995.61
2018-03-31T05:46:52.547Z,995.49
2018-03-31T05:47:52.430Z,995.55
2018-03-31T05:48:52.328Z,995.48
2018-03-31T05:49:52.228Z,995.44
2018-03-31T05:50:52.119Z,995.45
2018-03-31T05:51:52.017Z,995.47
2018-03-31T05:52:51.905Z,995.38
2018-03-31T05:53:51.798Z,995.35
2018-03-31T05:54:51.694Z,995.39
2018-03-31T05:55:51.592Z,995.38
2018-03-31T05:56:51.487Z,995.43
2018-03-31T05:57:51.384Z,995.35
2018-03-31T05:58:51.273Z,995.37
2018-03-31T05:59:51.165Z,995.34
2018-03-31T06:00:51.062Z,995.36
2018-03-31T06:01:50.959Z,995.39
2018-03-31T06:02:50.855Z,995.30
2018-03-31T06:03:50.753Z,995.34
2018-03-31T06:04:50.650Z,995.30
2018-03-31T06:05:50.537Z,995.34
2018-03-31T06:06:50.428Z,995.29
2018-03-31T06:07:50.325Z,995.20
2018-03-31T06:08:50.227Z,995.25
2018-03-31T06:09:50.119Z,995.18
2018-03-31T06:10:50.017Z,995.31
2018-03-31T06:11:49.908Z,995.27
2018-03-31T06:12:49.797Z,995.26
2018-03-31T06:13:49.694Z,995.13
2018-03-31T06:14:49.591Z,995.14
2018-03-31T06:15:49.487Z,995.11
2018-03-31T06:16:49.383Z,995.16
2018-03-31T06:17:49.268Z,995.15
2018-03-31T06:18:49.169Z,995.06
2018-03-31T06:19:49.063Z,995.08
2018-03-31T06:20:48.957Z,995.01
2018-03-31T06:21:49.153Z,994.97
2018-03-31T06:22:48.750Z,994.96
2018-03-31T06:23:48.637Z,994.98
2018-03-31T06:24:48.532Z,994.85
2018-03-31T06:25:48.429Z,994.94
2018-03-31T06:26:48.326Z,994.90
2018-03-31T06:27:48.223Z,994.85
2018-03-31T06:28:48.122Z,994.86
2018-03-31T06:29:48.003Z,994.87
2018-03-31T06:30:47.899Z,994.81
2018-03-31T06:31:47.802Z,994.83
2018-03-31T06:32:47.692Z,994.93
2018-03-31T06:33:47.589Z,994.72
2018-03-31T06:34:47.486Z,994.72
2018-03-31T06:35:47.384Z,994.83
2018-03-31T06:36:47.268Z,994.78
2018-03-31T06:37:47.164Z,994.77
2018-03-31T06:38:47.064Z,994.73
2018-03-31T06:39:46.962Z,994.75
2018-03-31T06:40:46.855Z,994.83
2018-03-31T06:41:46.739Z,994.75
2018-03-31T06:42:46.634Z,994.88
2018-03-31T06:43:46.560Z,994.84
2018-03-31T06:44:46.428Z,994.84
2018-03-31T06:45:46.325Z,994.83
2018-03-31T06:46:46.280Z,994.83
2018-03-31T06:47:46.106Z,994.64
2018-03-31T06:48:46.003Z,994.76
2018-03-31T06:49:45.899Z,994.84
2018-03-31T06:50:45.796Z,994.83
2018-03-31T06:51:45.692Z,995.13
2018-03-31T06:52:45.592Z,994.81
2018-03-31T06:53:45.474Z,994.89
2018-03-31T06:54:45.392Z,994.84
2018-03-31T06:55:45.261Z,994.82
2018-03-31T06:56:45.164Z,995.04
2018-03-31T06:57:45.060Z,994.81
2018-03-31T06:58:44.945Z,994.91
2018-03-31T06:59:44.845Z,994.91
2018-03-31T07:00:44.737Z,994.80
2018-03-31T07:01:44.634Z,994.81
2018-03-31T07:02:44.530Z,994.83
2018-03-31T07:03:44.416Z,994.73
2018-03-31T07:04:44.311Z,994.80
2018-03-31T07:05:44.207Z,994.82
2018-03-31T07:06:44.112Z,994.76
2018-03-31T07:07:44.001Z,994.87
2018-03-31T07:08:43.887Z,994.86
2018-03-31T07:09:43.783Z,994.81
2018-03-31T07:10:43.680Z,994.75
2018-03-31T07:11:43.577Z,994.77
2018-03-31T07:12:43.473Z,994.77
2018-03-31T07:13:43.357Z,994.74
2018-03-31T07:14:43.253Z,994.85
2018-03-31T07:15:43.150Z,994.84
2018-03-31T07:16:43.047Z,994.71
2018-03-31T07:17:42.933Z,994.73
2018-03-31T07:18:42.839Z,994.75
2018-03-31T07:19:42.725Z,994.67
2018-03-31T07:20:42.622Z,994.64
2018-03-31T07:21:42.519Z,994.62
2018-03-31T07:22:42.402Z,994.58
2018-03-31T07:23:42.366Z,994.60
2018-03-31T07:24:42.195Z,994.63
2018-03-31T07:25:42.093Z,994.63
2018-03-31T07:26:41.988Z,994.65
2018-03-31T07:27:41.873Z,994.63
2018-03-31T07:28:41.770Z,994.67
2018-03-31T07:29:41.666Z,994.55
2018-03-31T07:30:41.563Z,994.59
2018-03-31T07:31:41.465Z,994.61
2018-03-31T07:32:41.343Z,994.58
2018-03-31T07:33:41.240Z,994.61
2018-03-31T07:34:41.136Z,994.45
2018-03-31T07:35:41.033Z,994.54
2018-03-31T07:36:40.930Z,994.52
2018-03-31T07:37:40.815Z,994.48
2018-03-31T07:38:40.713Z,994.49
2018-03-31T07:39:40.607Z,994.49
2018-03-31T07:40:40.506Z,994.47
2018-03-31T07:41:40.388Z,994.51
2018-03-31T07:42:40.285Z,994.50
2018-03-31T07:43:40.186Z,994.51
2018-03-31T07:44:40.079Z,994.49
2018-03-31T07:45:39.964Z,994.44
2018-03-31T07:46:39.860Z,994.46
2018-03-31T07:47:39.762Z,994.43
2018-03-31T07:48:39.653Z,994.41
2018-03-31T07:49:39.555Z,994.45
2018-03-31T07:50:39.434Z,994.53
2018-03-31T07:51:39.329Z,994.44
2018-03-31T07:52:39.229Z,994.51
2018-03-31T07:53:39.123Z,994.42
2018-03-31T07:54:39.025Z,994.46
2018-03-31T07:55:38.905Z,994.55
2018-03-31T07:56:39.103Z,994.47
2018-03-31T07:57:38.699Z,994.49
2018-03-31T07:58:38.595Z,994.49
2018-03-31T07:59:38.480Z,994.44
2018-03-31T08:00:38.376Z,994.44
2018-03-31T08:01:38.273Z,994.42
2018-03-31T08:02:38.169Z,994.44
2018-03-31T08:03:38.065Z,994.36
2018-03-31T08:04:37.952Z,994.41
2018-03-31T08:05:37.851Z,994.38
2018-03-31T08:06:37.746Z,994.43
2018-03-31T08:07:37.641Z,994.36
2018-03-31T08:08:37.537Z,994.36
2018-03-31T08:09:37.420Z,994.39
2018-03-31T08:10:37.319Z,994.33
2018-03-31T08:11:37.213Z,994.38
2018-03-31T08:12:37.110Z,994.24
2018-03-31T08:13:36.998Z,994.29
2018-03-31T08:14:36.893Z,994.22
2018-03-31T08:15:36.789Z,994.28
2018-03-31T08:16:36.685Z,994.17
2018-03-31T08:17:36.584Z,994.23
2018-03-31T08:18:36.469Z,994.12
2018-03-31T08:19:36.362Z,994.15
2018-03-31T08:20:36.259Z,994.11
2018-03-31T08:21:36.155Z,994.16
2018-03-31T08:22:36.054Z,994.10
2018-03-31T08:23:35.939Z,994.10
2018-03-31T08:24:35.838Z,994.06
2018-03-31T08:25:35.730Z,994.13
2018-03-31T08:26:35.628Z,994.06
2018-03-31T08:27:35.534Z,994.11
2018-03-31T08:28:35.408Z,994.09
2018-03-31T08:29:35.304Z,994.14
2018-03-31T08:30:35.242Z,994.03
2018-03-31T08:31:35.098Z,994.13
2018-03-31T08:32:35.007Z,994.05
2018-03-31T08:33:34.905Z,994.04
2018-03-31T08:34:34.776Z,994.00
2018-03-31T08:35:34.676Z,993.99
2018-03-31T08:36:34.570Z,994.08
2018-03-31T08:37:34.465Z,994.01
2018-03-31T08:38:34.351Z,994.01
2018-03-31T08:39:34.246Z,994.03
2018-03-31T08:40:34.143Z,994.05
2018-03-31T08:41:34.039Z,993.92
2018-03-31T08:42:33.936Z,993.92
2018-03-31T08:43:33.833Z,993.95
2018-03-31T08:44:33.718Z,993.94
2018-03-31T08:45:33.615Z,993.89
2018-03-31T08:46:33.511Z,993.96
2018-03-31T08:47:33.408Z,993.86
2018-03-31T08:48:33.304Z,993.96
2018-03-31T08:49:33.201Z,993.95
2018-03-31T08:50:33.097Z,993.93
2018-03-31T08:51:32.982Z,993.93
2018-03-31T08:52:32.878Z,993.96
2018-03-31T08:53:32.776Z,993.78
2018-03-31T08:54:32.728Z,993.81
2018-03-31T08:55:32.568Z,993.85
2018-03-31T08:56:32.764Z,993.92
2018-03-31T08:57:32.350Z,993.93
2018-03-31T08:58:32.246Z,993.97
2018-03-31T08:59:32.143Z,993.96
2018-03-31T09:00:32.039Z,994.02
2018-03-31T09:01:31.936Z,993.97
2018-03-31T09:02:31.833Z,994.00
2018-03-31T09:03:31.717Z,994.02
2018-03-31T09:04:31.613Z,994.00
2018-03-31T09:05:31.510Z,994.04
2018-03-31T09:06:31.406Z,994.02
2018-03-31T09:07:31.303Z,994.04
2018-03-31T09:08:31.200Z,993.94
2018-03-31T09:09:31.096Z,993.87
2018-03-31T09:10:30.982Z,993.87
2018-03-31T09:11:30.878Z,993.83
2018-03-31T09:12:30.775Z,993.82
2018-03-31T09:13:30.672Z,993.76
2018-03-31T09:14:30.568Z,993.79
2018-03-31T09:15:30.465Z,993.81
2018-03-31T09:16:30.352Z,993.75
2018-03-31T09:17:30.258Z,993.79
2018-03-31T09:18:30.141Z,993.73
2018-03-31T09:19:30.038Z,993.71
2018-03-31T09:20:29.935Z,993.75
2018-03-31T09:21:29.831Z,993.67
2018-03-31T09:22:29.718Z,993.66
2018-03-31T09:23:29.617Z,993.64
2018-03-31T09:24:29.510Z,993.62
2018-03-31T09:25:29.407Z,993.59
2018-03-31T09:26:29.303Z,993.63
2018-03-31T09:27:29.200Z,993.56
2018-03-31T09:28:29.085Z,993.60
2018-03-31T09:29:28.981Z,993.57
2018-03-31T09:30:28.877Z,993.61
2018-03-31T09:31:28.787Z,993.55
2018-03-31T09:32:28.672Z,993.59
2018-03-31T09:33:28.566Z,993.56
2018-03-31T09:34:28.463Z,993.59
2018-03-31T09:35:28.360Z,993.56
2018-03-31T09:36:28.246Z,993.56
2018-03-31T09:37:28.143Z,993.59
2018-03-31T09:38:28.039Z,993.57
2018-03-31T09:39:27.935Z,993.62
2018-03-31T09:40:27.832Z,993.53
2018-03-31T09:41:27.979Z,993.47
2018-03-31T09:42:27.625Z,993.46
2018-03-31T09:43:27.522Z,993.48
2018-03-31T09:44:27.419Z,993.58
2018-03-31T09:45:27.302Z,993.45
2018-03-31T09:46:27.198Z,993.42
2018-03-31T09:47:27.095Z,993.43
2018-03-31T09:48:26.992Z,993.39
2018-03-31T09:49:26.892Z,993.42
2018-03-31T09:50:26.785Z,993.50
2018-03-31T09:51:26.681Z,993.38
2018-03-31T09:52:26.578Z,993.36
2018-03-31T09:53:26.475Z,993.24
2018-03-31T09:54:26.372Z,993.33
2018-03-31T09:55:26.268Z,993.21
2018-03-31T09:56:26.166Z,993.20
2018-03-31T09:57:26.050Z,993.20
2018-03-31T09:58:25.948Z,993.26
2018-03-31T09:59:25.844Z,993.16
2018-03-31T10:00:25.746Z,993.11
2018-03-31T10:01:25.886Z,993.22
2018-03-31T10:02:25.534Z,993.28
2018-03-31T10:03:25.430Z,993.01
2018-03-31T10:04:25.327Z,993.02
2018-03-31T10:05:25.227Z,992.96
2018-03-31T10:06:25.120Z,992.96
2018-03-31T10:07:25.017Z,992.93
2018-03-31T10:08:24.915Z,993.12
2018-03-31T10:09:24.815Z,993.01
2018-03-31T10:10:24.708Z,993.11
2018-03-31T10:11:24.604Z,993.24
2018-03-31T10:12:24.501Z,993.14
2018-03-31T10:13:24.397Z,993.19
2018-03-31T10:14:24.299Z,993.30
2018-03-31T10:15:24.190Z,993.26
2018-03-31T10:16:24.089Z,993.39
2018-03-31T10:17:23.984Z,993.41
2018-03-31T10:18:23.881Z,993.36
2018-03-31T10:19:23.766Z,993.38
2018-03-31T10:20:23.661Z,993.35
2018-03-31T10:21:23.807Z,993.35
2018-03-31T10:22:23.454Z,993.37
2018-03-31T10:23:23.353Z,993.39
2018-03-31T10:24:23.247Z,993.38
2018-03-31T10:25:23.144Z,993.37
2018-03-31T10:26:23.041Z,993.36
2018-03-31T10:27:22.938Z,993.32
2018-03-31T10:28:22.835Z,993.36
2018-03-31T10:29:22.731Z,993.43
2018-03-31T10:30:22.628Z,993.40
2018-03-31T10:31:22.525Z,993.46
2018-03-31T10:32:22.422Z,993.49
2018-03-31T10:33:22.306Z,993.46
2018-03-31T10:34:22.203Z,993.44
2018-03-31T10:35:22.137Z,993.48
2018-03-31T10:36:22.013Z,993.48
2018-03-31T10:37:21.900Z,993.48
2018-03-31T10:38:21.789Z,993.51
2018-03-31T10:39:21.686Z,993.40
2018-03-31T10:40:21.589Z,993.43
2018-03-31T10:41:21.481Z,993.44
2018-03-31T10:42:21.376Z,993.41
2018-03-31T10:43:21.262Z,993.45
2018-03-31T10:44:21.171Z,993.42
2018-03-31T10:45:21.053Z,993.42
2018-03-31T10:46:20.949Z,993.43
2018-03-31T10:47:20.846Z,993.34
2018-03-31T10:48:20.743Z,993.31
2018-03-31T10:49:20.641Z,993.37
2018-03-31T10:50:20.536Z,993.32
2018-03-31T10:51:20.432Z,993.32
2018-03-31T10:52:20.330Z,993.33
2018-03-31T10:53:20.226Z,993.34
2018-03-31T10:54:20.123Z,993.35
2018-03-31T10:55:20.020Z,993.33
2018-03-31T10:56:19.916Z,993.33
2018-03-31T10:57:19.812Z,993.32
2018-03-31T10:58:19.709Z,993.34
2018-03-31T10:59:19.606Z,993.28
2018-03-31T11:00:19.514Z,993.39
2018-03-31T11:01:19.388Z,993.37
2018-03-31T11:02:19.285Z,993.37
2018-03-31T11:03:19.181Z,993.39
2018-03-31T11:04:19.080Z,993.40
2018-03-31T11:05:18.974Z,993.38
2018-03-31T11:06:18.871Z,993.35
2018-03-31T11:07:18.767Z,993.35
2018-03-31T11:08:18.665Z,993.37
2018-03-31T11:09:18.565Z,993.34
2018-03-31T11:10:18.458Z,993.30
2018-03-31T11:11:18.355Z,993.32
2018-03-31T11:12:18.256Z,993.32
2018-03-31T11:13:18.149Z,993.23
2018-03-31T11:14:18.045Z,993.25
2018-03-31T11:15:17.942Z,993.27
2018-03-31T11:16:17.838Z,993.29
2018-03-31T11:17:17.734Z,993.31
2018-03-31T11:18:17.631Z,993.37
2018-03-31T11:19:17.518Z,993.43
2018-03-31T11:20:17.414Z,993.42
2018-03-31T11:21:17.310Z,993.48
2018-03-31T11:22:17.205Z,993.46
2018-03-31T11:23:17.102Z,993.41
2018-03-31T11:24:17.000Z,993.38
2018-03-31T11:25:16.895Z,993.45
2018-03-31T11:26:16.794Z,993.41
2018-03-31T11:27:16.689Z,993.38
2018-03-31T11:28:16.585Z,993.38
2018-03-31T11:29:16.481Z,993.38
2018-03-31T11:30:16.380Z,993.35
2018-03-31T11:31:16.282Z,993.32
2018-03-31T11:32:16.185Z,993.28
2018-03-31T11:33:16.069Z,993.35
2018-03-31T11:34:15.965Z,993.28
2018-03-31T11:35:15.862Z,993.32
2018-03-31T11:36:15.758Z,993.21
2018-03-31T11:37:15.655Z,993.21
2018-03-31T11:38:15.552Z,993.23
2018-03-31T11:39:15.449Z,993.23
2018-03-31T11:40:15.346Z,993.28
2018-03-31T11:41:15.243Z,993.20
2018-03-31T11:42:15.138Z,993.29
2018-03-31T11:43:15.036Z,993.24
2018-03-31T11:44:14.945Z,993.22
2018-03-31T11:45:14.829Z,993.19
2018-03-31T11:46:14.725Z,993.20
2018-03-31T11:47:14.622Z,993.15
2018-03-31T11:48:14.519Z,993.13
2018-03-31T11:49:14.404Z,993.04
2018-03-31T11:50:14.300Z,993.03
2018-03-31T11:51:14.203Z,992.97
2018-03-31T11:52:14.103Z,993.03
2018-03-31T11:53:13.991Z,993.04
2018-03-31T11:54:13.887Z,993.01
2018-03-31T11:55:13.788Z,993.07
2018-03-31T11:56:13.681Z,993.07
2018-03-31T11:57:13.580Z,993.01
2018-03-31T11:58:13.474Z,993.02
2018-03-31T11:59:13.371Z,993.00
2018-03-31T12:00:13.270Z,992.96
2018-03-31T12:01:13.164Z,993.00
2018-03-31T12:02:13.061Z,992.98
2018-03-31T12:03:12.958Z,992.95
2018-03-31T12:04:12.855Z,992.96
2018-03-31T12:05:12.751Z,992.95
2018-03-31T12:06:12.648Z,992.92
2018-03-31T12:07:12.544Z,992.99
2018-03-31T12:08:12.440Z,992.83
2018-03-31T12:09:12.338Z,992.78
2018-03-31T12:10:12.235Z,992.84
2018-03-31T12:11:12.131Z,992.82
2018-03-31T12:12:12.027Z,992.86
2018-03-31T12:13:11.925Z,992.90
2018-03-31T12:14:11.821Z,992.94
2018-03-31T12:15:11.717Z,992.96
2018-03-31T12:16:11.619Z,992.95
2018-03-31T12:17:11.511Z,992.91
2018-03-31T12:18:11.408Z,992.91
2018-03-31T12:19:11.304Z,992.87
2018-03-31T12:20:11.202Z,992.82
2018-03-31T12:21:11.099Z,992.78
2018-03-31T12:22:10.995Z,992.79
2018-03-31T12:23:10.891Z,992.84
2018-03-31T12:24:10.793Z,992.83
2018-03-31T12:25:10.684Z,992.82
2018-03-31T12:26:10.582Z,992.84
2018-03-31T12:27:10.524Z,992.78